Main page
METAR-TAF:

METAR-TAF

Airports :

Isle of Man,

Isle of Man Airport

latitude: 54-05N, longitude: 004-38W, elevation: 17 m

Current weather observation

The report was made 1 hour and 1 minutes ago, at 03:50 UTC
Wind 29 kt from the West with gusts up to 43 kt, varying between West and Northwest
Temperature 11°C
Humidity 66%
Pressure 1002 hPa
Visibility 10 km or more
Broken clouds at a height of 2400 ft

METAR: EGNS 220350Z 28029G43KT 260V320 9999 BKN024 11/05 Q1002

Time: 05:51 (04:51 UTC)

Forecast

The report was made 11 hours and 51 minutes ago, at 17:00 UTC
Forecast valid from 21 at 18 UTC to 21 at 21 UTC
Wind 25 kt from the West with gusts up to 35 kt
Visibility 10 km or more
Scattered clouds at a height of 1200 ft
Broken clouds at a height of 2500 ft
Temporary
from 21 at 18 UTC to 21 at 21 UTC
Visibility: 5000 m
Broken clouds at a height of 1000 ft
rain showers

TAF: EGNS 211700Z 2118/2121 28025G35KT 9999 SCT012 BKN025 TEMPO 2118/2121 28027G45GT 5000 SHRA BKN010

Weather observations and forecasts of more than 4000 airports (METAR and TAF reports).

The available stations are represented by yellow and red dots on the map.

Hover mouse over dot to see the name of the station.

Then click to see weather observations and forecasts.

To change the map : click on the green buttons with a black cross to zoom in, on the green button with a dash to zoom out, or on the green arrows for adjacent maps.


METAR-TAF: